sensor_id;sensor_type;location;lat;lon;timestamp;temperature;humidity
9537;DHT22;4807;48.024;11.726;2024-02-15T00:02:04;8.00;97.60
9537;DHT22;4807;48.024;11.726;2024-02-15T00:05:12;8.00;97.70
9537;DHT22;4807;48.024;11.726;2024-02-15T00:08:23;7.90;97.70
9537;DHT22;4807;48.024;11.726;2024-02-15T00:11:34;7.80;97.90
9537;DHT22;4807;48.024;11.726;2024-02-15T00:14:42;7.80;98.30
9537;DHT22;4807;48.024;11.726;2024-02-15T00:17:52;7.70;98.60
9537;DHT22;4807;48.024;11.726;2024-02-15T00:21:00;7.70;98.70
9537;DHT22;4807;48.024;11.726;2024-02-15T00:24:09;7.60;98.70
9537;DHT22;4807;48.024;11.726;2024-02-15T00:27:17;7.60;98.70
9537;DHT22;4807;48.024;11.726;2024-02-15T00:30:25;7.60;98.80
9537;DHT22;4807;48.024;11.726;2024-02-15T00:33:36;7.60;98.80
9537;DHT22;4807;48.024;11.726;2024-02-15T00:36:45;7.60;98.70
9537;DHT22;4807;48.024;11.726;2024-02-15T00:39:54;7.60;98.50
9537;DHT22;4807;48.024;11.726;2024-02-15T00:43:03;7.60;98.70
9537;DHT22;4807;48.024;11.726;2024-02-15T00:46:11;7.60;98.70
9537;DHT22;4807;48.024;11.726;2024-02-15T00:49:21;7.60;98.80
9537;DHT22;4807;48.024;11.726;2024-02-15T00:52:30;8.90;99.30
9537;DHT22;4807;48.024;11.726;2024-02-15T00:55:38;7.50;98.70
9537;DHT22;4807;48.024;11.726;2024-02-15T00:58:46;7.50;98.70
9537;DHT22;4807;48.024;11.726;2024-02-15T01:01:55;7.50;98.80
9537;DHT22;4807;48.024;11.726;2024-02-15T01:05:05;7.50;98.80
9537;DHT22;4807;48.024;11.726;2024-02-15T01:08:14;7.50;98.90
9537;DHT22;4807;48.024;11.726;2024-02-15T01:11:22;7.40;99.10
9537;DHT22;4807;48.024;11.726;2024-02-15T01:14:30;7.40;99.20
9537;DHT22;4807;48.024;11.726;2024-02-15T01:17:39;7.40;99.20
9537;DHT22;4807;48.024;11.726;2024-02-15T01:20:49;7.30;99.20
9537;DHT22;4807;48.024;11.726;2024-02-15T01:23:59;7.30;99.30
9537;DHT22;4807;48.024;11.726;2024-02-15T01:27:08;7.40;99.40
9537;DHT22;4807;48.024;11.726;2024-02-15T01:30:17;7.30;99.40
9537;DHT22;4807;48.024;11.726;2024-02-15T01:33:25;8.10;99.80
9537;DHT22;4807;48.024;11.726;2024-02-15T01:36:37;7.30;99.40
9537;DHT22;4807;48.024;11.726;2024-02-15T01:39:46;7.40;99.40
9537;DHT22;4807;48.024;11.726;2024-02-15T01:42:54;7.40;99.30
9537;DHT22;4807;48.024;11.726;2024-02-15T01:46:08;7.90;99.70
9537;DHT22;4807;48.024;11.726;2024-02-15T01:49:17;7.20;99.50
9537;DHT22;4807;48.024;11.726;2024-02-15T01:52:28;7.20;99.80
9537;DHT22;4807;48.024;11.726;2024-02-15T01:55:38;7.10;99.90
9537;DHT22;4807;48.024;11.726;2024-02-15T01:58:47;7.10;99.90
9537;DHT22;4807;48.024;11.726;2024-02-15T02:01:56;7.10;99.80
9537;DHT22;4807;48.024;11.726;2024-02-15T02:05:05;7.10;99.80
9537;DHT22;4807;48.024;11.726;2024-02-15T02:08:16;7.00;99.90
9537;DHT22;4807;48.024;11.726;2024-02-15T02:11:25;7.00;99.90
9537;DHT22;4807;48.024;11.726;2024-02-15T02:14:36;7.00;99.90
9537;DHT22;4807;48.024;11.726;2024-02-15T02:17:48;6.90;99.90
9537;DHT22;4807;48.024;11.726;2024-02-15T02:20:57;7.00;99.90
9537;DHT22;4807;48.024;11.726;2024-02-15T02:24:12;7.10;99.90
9537;DHT22;4807;48.024;11.726;2024-02-15T02:27:24;7.30;99.60
9537;DHT22;4807;48.024;11.726;2024-02-15T02:30:35;7.20;99.90
9537;DHT22;4807;48.024;11.726;2024-02-15T02:33:49;7.10;99.90
9537;DHT22;4807;48.024;11.726;2024-02-15T02:37:00;7.10;99.90
9537;DHT22;4807;48.024;11.726;2024-02-15T02:40:12;7.10;99.90
9537;DHT22;4807;48.024;11.726;2024-02-15T02:43:21;7.10;99.90
9537;DHT22;4807;48.024;11.726;2024-02-15T02:46:30;7.20;99.90
9537;DHT22;4807;48.024;11.726;2024-02-15T02:49:38;7.30;99.90
9537;DHT22;4807;48.024;11.726;2024-02-15T02:52:47;7.20;99.90
9537;DHT22;4807;48.024;11.726;2024-02-15T02:55:56;7.00;99.90
9537;DHT22;4807;48.024;11.726;2024-02-15T02:59:05;6.90;99.90
9537;DHT22;4807;48.024;11.726;2024-02-15T03:02:14;6.90;99.90
9537;DHT22;4807;48.024;11.726;2024-02-15T03:05:23;7.00;99.90
9537;DHT22;4807;48.024;11.726;2024-02-15T03:08:31;6.90;99.90
9537;DHT22;4807;48.024;11.726;2024-02-15T03:11:41;6.90;99.90
9537;DHT22;4807;48.024;11.726;2024-02-15T03:14:50;7.00;99.90
9537;DHT22;4807;48.024;11.726;2024-02-15T03:17:59;7.00;99.90
9537;DHT22;4807;48.024;11.726;2024-02-15T03:21:14;7.10;99.90
9537;DHT22;4807;48.024;11.726;2024-02-15T03:24:23;7.00;99.90
9537;DHT22;4807;48.024;11.726;2024-02-15T03:27:31;6.90;99.90
9537;DHT22;4807;48.024;11.726;2024-02-15T03:30:41;7.00;99.90
9537;DHT22;4807;48.024;11.726;2024-02-15T03:33:50;6.90;99.90
9537;DHT22;4807;48.024;11.726;2024-02-15T03:37:01;7.00;99.90
9537;DHT22;4807;48.024;11.726;2024-02-15T03:40:11;6.80;99.90
9537;DHT22;4807;48.024;11.726;2024-02-15T03:43:21;6.90;99.90
9537;DHT22;4807;48.024;11.726;2024-02-15T03:46:31;7.00;99.90
9537;DHT22;4807;48.024;11.726;2024-02-15T03:49:40;6.90;99.90
9537;DHT22;4807;48.024;11.726;2024-02-15T03:52:49;6.90;99.90
9537;DHT22;4807;48.024;11.726;2024-02-15T03:55:58;6.90;99.90
9537;DHT22;4807;48.024;11.726;2024-02-15T03:59:07;6.80;99.90
9537;DHT22;4807;48.024;11.726;2024-02-15T04:02:16;6.80;99.90
9537;DHT22;4807;48.024;11.726;2024-02-15T04:05:25;6.80;99.90
9537;DHT22;4807;48.024;11.726;2024-02-15T04:08:33;6.80;99.90
9537;DHT22;4807;48.024;11.726;2024-02-15T04:11:43;6.90;99.90
9537;DHT22;4807;48.024;11.726;2024-02-15T04:14:54;6.70;99.90
9537;DHT22;4807;48.024;11.726;2024-02-15T04:18:07;6.70;99.90
9537;DHT22;4807;48.024;11.726;2024-02-15T04:21:18;5.40;99.90
9537;DHT22;4807;48.024;11.726;2024-02-15T04:24:26;6.70;99.90
9537;DHT22;4807;48.024;11.726;2024-02-15T04:27:35;6.60;99.90
9537;DHT22;4807;48.024;11.726;2024-02-15T04:30:43;6.60;99.90
9537;DHT22;4807;48.024;11.726;2024-02-15T04:33:55;6.50;99.90
9537;DHT22;4807;48.024;11.726;2024-02-15T04:37:04;6.40;99.90
9537;DHT22;4807;48.024;11.726;2024-02-15T04:40:14;6.30;99.90
9537;DHT22;4807;48.024;11.726;2024-02-15T04:43:25;6.40;99.90
9537;DHT22;4807;48.024;11.726;2024-02-15T04:46:33;6.40;99.90
9537;DHT22;4807;48.024;11.726;2024-02-15T04:49:43;6.30;99.90
9537;DHT22;4807;48.024;11.726;2024-02-15T04:52:51;6.20;99.90
9537;DHT22;4807;48.024;11.726;2024-02-15T04:56:00;6.30;99.90
9537;DHT22;4807;48.024;11.726;2024-02-15T04:59:13;6.30;99.90
9537;DHT22;4807;48.024;11.726;2024-02-15T05:02:23;6.30;99.90
9537;DHT22;4807;48.024;11.726;2024-02-15T05:05:33;6.40;99.90
9537;DHT22;4807;48.024;11.726;2024-02-15T05:08:41;6.40;99.90
9537;DHT22;4807;48.024;11.726;2024-02-15T05:11:50;6.40;99.90
9537;DHT22;4807;48.024;11.726;2024-02-15T05:14:59;6.40;99.90
9537;DHT22;4807;48.024;11.726;2024-02-15T05:18:08;6.30;99.90
9537;DHT22;4807;48.024;11.726;2024-02-15T05:21:18;6.20;99.90
9537;DHT22;4807;48.024;11.726;2024-02-15T05:24:27;6.10;99.90
9537;DHT22;4807;48.024;11.726;2024-02-15T05:27:36;6.00;99.90
9537;DHT22;4807;48.024;11.726;2024-02-15T05:30:45;6.00;99.90
9537;DHT22;4807;48.024;11.726;2024-02-15T05:33:54;5.90;99.90
9537;DHT22;4807;48.024;11.726;2024-02-15T05:37:04;5.90;99.90
9537;DHT22;4807;48.024;11.726;2024-02-15T05:40:14;5.80;99.90
9537;DHT22;4807;48.024;11.726;2024-02-15T05:43:23;5.70;99.90
9537;DHT22;4807;48.024;11.726;2024-02-15T05:46:32;5.70;99.90
9537;DHT22;4807;48.024;11.726;2024-02-15T05:49:44;5.60;99.90
9537;DHT22;4807;48.024;11.726;2024-02-15T05:52:56;5.40;99.90
9537;DHT22;4807;48.024;11.726;2024-02-15T05:56:06;5.30;99.90
9537;DHT22;4807;48.024;11.726;2024-02-15T05:59:17;5.10;99.90
9537;DHT22;4807;48.024;11.726;2024-02-15T06:02:27;5.10;99.90
9537;DHT22;4807;48.024;11.726;2024-02-15T06:05:35;5.10;99.90
9537;DHT22;4807;48.024;11.726;2024-02-15T06:08:46;5.00;99.90
9537;DHT22;4807;48.024;11.726;2024-02-15T06:11:56;4.90;99.90
9537;DHT22;4807;48.024;11.726;2024-02-15T06:15:05;4.80;99.90
9537;DHT22;4807;48.024;11.726;2024-02-15T06:18:22;4.80;99.90
9537;DHT22;4807;48.024;11.726;2024-02-15T06:21:33;4.80;99.90
9537;DHT22;4807;48.024;11.726;2024-02-15T06:24:43;4.80;99.90
9537;DHT22;4807;48.024;11.726;2024-02-15T06:27:51;4.80;99.90
9537;DHT22;4807;48.024;11.726;2024-02-15T06:31:05;4.80;99.90
9537;DHT22;4807;48.024;11.726;2024-02-15T06:34:32;4.70;99.90
9537;DHT22;4807;48.024;11.726;2024-02-15T06:37:58;4.70;99.90
9537;DHT22;4807;48.024;11.726;2024-02-15T06:41:25;4.70;99.90
9537;DHT22;4807;48.024;11.726;2024-02-15T06:44:35;4.90;99.90
9537;DHT22;4807;48.024;11.726;2024-02-15T06:47:44;5.10;99.90
9537;DHT22;4807;48.024;11.726;2024-02-15T06:50:52;5.30;99.90
9537;DHT22;4807;48.024;11.726;2024-02-15T06:54:01;5.50;99.90
9537;DHT22;4807;48.024;11.726;2024-02-15T06:57:11;5.70;99.90
9537;DHT22;4807;48.024;11.726;2024-02-15T07:00:20;5.80;99.90
9537;DHT22;4807;48.024;11.726;2024-02-15T07:03:29;6.00;99.90
9537;DHT22;4807;48.024;11.726;2024-02-15T07:06:39;6.10;99.90
9537;DHT22;4807;48.024;11.726;2024-02-15T07:09:52;6.30;99.90
9537;DHT22;4807;48.024;11.726;2024-02-15T07:13:02;6.70;99.90
9537;DHT22;4807;48.024;11.726;2024-02-15T07:16:10;6.80;99.90
9537;DHT22;4807;48.024;11.726;2024-02-15T07:19:20;7.20;99.90
9537;DHT22;4807;48.024;11.726;2024-02-15T07:22:30;7.60;99.90
9537;DHT22;4807;48.024;11.726;2024-02-15T07:25:40;8.00;99.50
9537;DHT22;4807;48.024;11.726;2024-02-15T07:28:50;8.20;99.00
9537;DHT22;4807;48.024;11.726;2024-02-15T07:32:01;8.30;98.10
9537;DHT22;4807;48.024;11.726;2024-02-15T07:35:11;8.20;98.10
9537;DHT22;4807;48.024;11.726;2024-02-15T07:38:20;8.10;98.50
9537;DHT22;4807;48.024;11.726;2024-02-15T07:41:30;8.10;98.70
9537;DHT22;4807;48.024;11.726;2024-02-15T07:44:41;8.00;98.40
9537;DHT22;4807;48.024;11.726;2024-02-15T07:47:50;7.90;98.50
9537;DHT22;4807;48.024;11.726;2024-02-15T07:50:58;7.90;98.70
9537;DHT22;4807;48.024;11.726;2024-02-15T07:54:07;8.10;98.90
9537;DHT22;4807;48.024;11.726;2024-02-15T07:57:15;8.10;98.50
9537;DHT22;4807;48.024;11.726;2024-02-15T08:00:25;8.20;98.10
9537;DHT22;4807;48.024;11.726;2024-02-15T08:03:35;8.30;98.00
9537;DHT22;4807;48.024;11.726;2024-02-15T08:06:43;8.30;97.90
9537;DHT22;4807;48.024;11.726;2024-02-15T08:09:52;8.40;98.00
9537;DHT22;4807;48.024;11.726;2024-02-15T08:13:01;8.50;97.70
9537;DHT22;4807;48.024;11.726;2024-02-15T08:16:11;8.70;97.50
9537;DHT22;4807;48.024;11.726;2024-02-15T08:19:22;8.80;97.90
9537;DHT22;4807;48.024;11.726;2024-02-15T08:22:31;9.10;97.50
9537;DHT22;4807;48.024;11.726;2024-02-15T08:25:40;9.40;97.20
9537;DHT22;4807;48.024;11.726;2024-02-15T08:28:48;9.70;96.70
9537;DHT22;4807;48.024;11.726;2024-02-15T08:31:58;9.90;96.20
9537;DHT22;4807;48.024;11.726;2024-02-15T08:35:08;10.00;95.60
9537;DHT22;4807;48.024;11.726;2024-02-15T08:38:18;10.10;95.50
9537;DHT22;4807;48.024;11.726;2024-02-15T08:41:27;10.20;95.00
9537;DHT22;4807;48.024;11.726;2024-02-15T08:44:36;10.30;95.00
9537;DHT22;4807;48.024;11.726;2024-02-15T08:47:46;10.40;94.90
9537;DHT22;4807;48.024;11.726;2024-02-15T08:50:57;10.40;94.70
9537;DHT22;4807;48.024;11.726;2024-02-15T08:54:05;10.60;94.80
9537;DHT22;4807;48.024;11.726;2024-02-15T08:57:14;10.90;94.20
9537;DHT22;4807;48.024;11.726;2024-02-15T09:00:23;11.20;94.00
9537;DHT22;4807;48.024;11.726;2024-02-15T09:03:35;11.30;94.00
9537;DHT22;4807;48.024;11.726;2024-02-15T09:06:43;11.60;93.40
9537;DHT22;4807;48.024;11.726;2024-02-15T09:09:53;11.60;92.90
9537;DHT22;4807;48.024;11.726;2024-02-15T09:13:02;11.70;92.90
9537;DHT22;4807;48.024;11.726;2024-02-15T09:16:11;11.70;92.90
9537;DHT22;4807;48.024;11.726;2024-02-15T09:19:21;11.90;92.50
9537;DHT22;4807;48.024;11.726;2024-02-15T09:22:32;12.00;92.60
9537;DHT22;4807;48.024;11.726;2024-02-15T09:25:42;12.10;92.40
9537;DHT22;4807;48.024;11.726;2024-02-15T09:28:51;12.20;92.40
9537;DHT22;4807;48.024;11.726;2024-02-15T09:32:00;12.30;92.30
9537;DHT22;4807;48.024;11.726;2024-02-15T09:35:11;12.50;91.90
9537;DHT22;4807;48.024;11.726;2024-02-15T09:38:20;12.50;91.80
9537;DHT22;4807;48.024;11.726;2024-02-15T09:41:29;12.60;92.10
9537;DHT22;4807;48.024;11.726;2024-02-15T09:44:38;12.70;92.00
9537;DHT22;4807;48.024;11.726;2024-02-15T09:47:48;12.60;92.10
9537;DHT22;4807;48.024;11.726;2024-02-15T09:50:59;12.60;92.20
9537;DHT22;4807;48.024;11.726;2024-02-15T09:54:09;12.70;92.10
9537;DHT22;4807;48.024;11.726;2024-02-15T09:57:20;12.80;92.00
9537;DHT22;4807;48.024;11.726;2024-02-15T10:00:29;12.90;91.60
9537;DHT22;4807;48.024;11.726;2024-02-15T10:03:40;12.90;91.70
9537;DHT22;4807;48.024;11.726;2024-02-15T10:06:51;13.00;91.30
9537;DHT22;4807;48.024;11.726;2024-02-15T10:10:14;13.10;91.30
9537;DHT22;4807;48.024;11.726;2024-02-15T10:13:24;13.20;91.40
9537;DHT22;4807;48.024;11.726;2024-02-15T10:16:32;13.30;90.90
9537;DHT22;4807;48.024;11.726;2024-02-15T10:19:45;13.30;90.90
9537;DHT22;4807;48.024;11.726;2024-02-15T10:23:15;13.40;91.60
9537;DHT22;4807;48.024;11.726;2024-02-15T10:26:26;13.50;91.30
9537;DHT22;4807;48.024;11.726;2024-02-15T10:29:36;13.60;92.10
9537;DHT22;4807;48.024;11.726;2024-02-15T10:32:49;13.80;91.90
9537;DHT22;4807;48.024;11.726;2024-02-15T10:36:05;13.90;91.30
9537;DHT22;4807;48.024;11.726;2024-02-15T10:39:23;14.00;91.50
9537;DHT22;4807;48.024;11.726;2024-02-15T10:42:33;14.00;90.70
9537;DHT22;4807;48.024;11.726;2024-02-15T10:45:42;14.10;90.30
9537;DHT22;4807;48.024;11.726;2024-02-15T10:48:52;13.50;89.50
9537;DHT22;4807;48.024;11.726;2024-02-15T10:52:02;14.10;90.30
9537;DHT22;4807;48.024;11.726;2024-02-15T10:55:17;14.20;90.30
9537;DHT22;4807;48.024;11.726;2024-02-15T10:58:33;14.30;90.10
9537;DHT22;4807;48.024;11.726;2024-02-15T11:01:49;14.30;90.20
9537;DHT22;4807;48.024;11.726;2024-02-15T11:05:05;14.30;90.00
9537;DHT22;4807;48.024;11.726;2024-02-15T11:08:17;14.40;90.10
9537;DHT22;4807;48.024;11.726;2024-02-15T11:11:28;14.50;90.20
9537;DHT22;4807;48.024;11.726;2024-02-15T11:14:38;14.60;90.10
9537;DHT22;4807;48.024;11.726;2024-02-15T11:17:52;14.70;89.10
9537;DHT22;4807;48.024;11.726;2024-02-15T11:21:04;14.70;89.90
9537;DHT22;4807;48.024;11.726;2024-02-15T11:24:27;14.70;89.00
9537;DHT22;4807;48.024;11.726;2024-02-15T11:27:38;14.70;88.90
9537;DHT22;4807;48.024;11.726;2024-02-15T11:30:48;14.80;88.50
9537;DHT22;4807;48.024;11.726;2024-02-15T11:33:56;14.70;88.70
9537;DHT22;4807;48.024;11.726;2024-02-15T11:37:05;14.80;88.40
9537;DHT22;4807;48.024;11.726;2024-02-15T11:40:13;14.70;90.10
9537;DHT22;4807;48.024;11.726;2024-02-15T11:43:50;14.80;88.70
9537;DHT22;4807;48.024;11.726;2024-02-15T11:47:07;14.90;88.10
9537;DHT22;4807;48.024;11.726;2024-02-15T11:50:18;15.10;88.30
9537;DHT22;4807;48.024;11.726;2024-02-15T11:53:28;15.10;88.10
9537;DHT22;4807;48.024;11.726;2024-02-15T11:56:50;15.10;86.50
9537;DHT22;4807;48.024;11.726;2024-02-15T12:00:24;15.10;86.60
9537;DHT22;4807;48.024;11.726;2024-02-15T12:03:52;15.20;86.80
9537;DHT22;4807;48.024;11.726;2024-02-15T12:07:18;15.20;86.30
9537;DHT22;4807;48.024;11.726;2024-02-15T12:10:56;15.20;85.70
9537;DHT22;4807;48.024;11.726;2024-02-15T12:14:22;15.20;85.80
9537;DHT22;4807;48.024;11.726;2024-02-15T12:17:50;15.10;84.50
9537;DHT22;4807;48.024;11.726;2024-02-15T12:21:18;15.00;85.90
9537;DHT22;4807;48.024;11.726;2024-02-15T12:24:30;15.00;85.30
9537;DHT22;4807;48.024;11.726;2024-02-15T12:27:38;14.90;84.60
9537;DHT22;4807;48.024;11.726;2024-02-15T12:30:46;14.80;85.80
9537;DHT22;4807;48.024;11.726;2024-02-15T12:34:05;14.70;85.90
9537;DHT22;4807;48.024;11.726;2024-02-15T12:37:17;14.70;85.70
9537;DHT22;4807;48.024;11.726;2024-02-15T12:40:30;14.60;85.20
9537;DHT22;4807;48.024;11.726;2024-02-15T12:43:40;14.60;86.60
9537;DHT22;4807;48.024;11.726;2024-02-15T12:46:54;14.60;85.60
9537;DHT22;4807;48.024;11.726;2024-02-15T12:50:15;14.60;86.50
9537;DHT22;4807;48.024;11.726;2024-02-15T12:53:23;14.50;86.30
9537;DHT22;4807;48.024;11.726;2024-02-15T12:56:33;14.40;86.90
9537;DHT22;4807;48.024;11.726;2024-02-15T12:59:43;14.50;86.40
9537;DHT22;4807;48.024;11.726;2024-02-15T13:02:51;14.50;86.60
9537;DHT22;4807;48.024;11.726;2024-02-15T13:06:01;14.50;85.30
9537;DHT22;4807;48.024;11.726;2024-02-15T13:09:10;14.70;86.20
9537;DHT22;4807;48.024;11.726;2024-02-15T13:12:20;14.90;85.90
9537;DHT22;4807;48.024;11.726;2024-02-15T13:15:30;15.20;84.80
9537;DHT22;4807;48.024;11.726;2024-02-15T13:18:41;15.40;84.00
9537;DHT22;4807;48.024;11.726;2024-02-15T13:21:52;15.50;82.80
9537;DHT22;4807;48.024;11.726;2024-02-15T13:25:05;15.40;82.70
9537;DHT22;4807;48.024;11.726;2024-02-15T13:28:16;15.30;83.10
9537;DHT22;4807;48.024;11.726;2024-02-15T13:31:25;15.30;82.80
9537;DHT22;4807;48.024;11.726;2024-02-15T13:34:34;15.40;81.90
9537;DHT22;4807;48.024;11.726;2024-02-15T13:37:46;15.30;81.60
9537;DHT22;4807;48.024;11.726;2024-02-15T13:40:57;15.30;83.00
9537;DHT22;4807;48.024;11.726;2024-02-15T13:44:09;15.40;84.00
9537;DHT22;4807;48.024;11.726;2024-02-15T13:47:18;15.40;81.80
9537;DHT22;4807;48.024;11.726;2024-02-15T13:50:29;15.50;81.10
9537;DHT22;4807;48.024;11.726;2024-02-15T13:53:39;15.50;81.70
9537;DHT22;4807;48.024;11.726;2024-02-15T13:56:50;15.60;82.20
9537;DHT22;4807;48.024;11.726;2024-02-15T13:59:58;15.70;80.70
9537;DHT22;4807;48.024;11.726;2024-02-15T14:03:07;15.70;80.00
9537;DHT22;4807;48.024;11.726;2024-02-15T14:06:18;15.80;80.20
9537;DHT22;4807;48.024;11.726;2024-02-15T14:09:28;15.70;79.20
9537;DHT22;4807;48.024;11.726;2024-02-15T14:12:38;15.50;79.80
9537;DHT22;4807;48.024;11.726;2024-02-15T14:15:46;15.40;81.00
9537;DHT22;4807;48.024;11.726;2024-02-15T14:18:55;15.30;81.10
9537;DHT22;4807;48.024;11.726;2024-02-15T14:22:04;15.30;80.60
9537;DHT22;4807;48.024;11.726;2024-02-15T14:25:17;15.30;81.20
9537;DHT22;4807;48.024;11.726;2024-02-15T14:28:26;15.20;81.40
9537;DHT22;4807;48.024;11.726;2024-02-15T14:31:36;15.10;81.10
9537;DHT22;4807;48.024;11.726;2024-02-15T14:35:02;15.10;81.30
9537;DHT22;4807;48.024;11.726;2024-02-15T14:38:13;15.00;82.40
9537;DHT22;4807;48.024;11.726;2024-02-15T14:41:24;15.00;80.90
9537;DHT22;4807;48.024;11.726;2024-02-15T14:44:36;15.00;82.30
9537;DHT22;4807;48.024;11.726;2024-02-15T14:47:46;15.10;82.20
9537;DHT22;4807;48.024;11.726;2024-02-15T14:50:55;15.00;82.60
9537;DHT22;4807;48.024;11.726;2024-02-15T14:54:04;15.10;83.90
9537;DHT22;4807;48.024;11.726;2024-02-15T14:57:15;15.00;84.80
9537;DHT22;4807;48.024;11.726;2024-02-15T15:00:28;15.00;84.30
9537;DHT22;4807;48.024;11.726;2024-02-15T15:03:53;14.90;85.10
9537;DHT22;4807;48.024;11.726;2024-02-15T15:07:05;14.70;85.80
9537;DHT22;4807;48.024;11.726;2024-02-15T15:10:31;14.70;86.40
9537;DHT22;4807;48.024;11.726;2024-02-15T15:13:59;14.60;86.70
9537;DHT22;4807;48.024;11.726;2024-02-15T15:17:07;14.50;87.30
9537;DHT22;4807;48.024;11.726;2024-02-15T15:20:17;14.40;86.70
9537;DHT22;4807;48.024;11.726;2024-02-15T15:23:27;14.40;87.20
9537;DHT22;4807;48.024;11.726;2024-02-15T15:26:38;14.20;87.30
9537;DHT22;4807;48.024;11.726;2024-02-15T15:29:49;14.10;87.90
9537;DHT22;4807;48.024;11.726;2024-02-15T15:32:58;14.00;88.40
9537;DHT22;4807;48.024;11.726;2024-02-15T15:36:07;13.90;88.70
9537;DHT22;4807;48.024;11.726;2024-02-15T15:39:15;13.70;89.80
9537;DHT22;4807;48.024;11.726;2024-02-15T15:42:23;13.60;90.70
9537;DHT22;4807;48.024;11.726;2024-02-15T15:45:35;13.40;90.60
9537;DHT22;4807;48.024;11.726;2024-02-15T15:48:44;13.30;90.90
9537;DHT22;4807;48.024;11.726;2024-02-15T15:51:53;13.10;91.20
9537;DHT22;4807;48.024;11.726;2024-02-15T15:55:01;12.90;91.70
9537;DHT22;4807;48.024;11.726;2024-02-15T15:58:09;12.70;92.00
9537;DHT22;4807;48.024;11.726;2024-02-15T16:01:19;12.50;92.30
9537;DHT22;4807;48.024;11.726;2024-02-15T16:04:29;12.30;92.60
9537;DHT22;4807;48.024;11.726;2024-02-15T16:07:37;12.10;92.80
9537;DHT22;4807;48.024;11.726;2024-02-15T16:10:47;12.10;93.10
9537;DHT22;4807;48.024;11.726;2024-02-15T16:13:56;11.90;93.30
9537;DHT22;4807;48.024;11.726;2024-02-15T16:17:06;11.80;93.50
9537;DHT22;4807;48.024;11.726;2024-02-15T16:20:16;11.60;93.70
9537;DHT22;4807;48.024;11.726;2024-02-15T16:23:25;11.40;94.00
9537;DHT22;4807;48.024;11.726;2024-02-15T16:26:34;11.10;94.20
9537;DHT22;4807;48.024;11.726;2024-02-15T16:29:42;10.90;94.60
9537;DHT22;4807;48.024;11.726;2024-02-15T16:32:52;10.70;95.00
9537;DHT22;4807;48.024;11.726;2024-02-15T16:36:02;10.50;95.40
9537;DHT22;4807;48.024;11.726;2024-02-15T16:39:11;10.30;95.60
9537;DHT22;4807;48.024;11.726;2024-02-15T16:42:21;10.10;96.10
9537;DHT22;4807;48.024;11.726;2024-02-15T16:45:30;9.90;97.00
9537;DHT22;4807;48.024;11.726;2024-02-15T16:48:41;9.80;97.40
9537;DHT22;4807;48.024;11.726;2024-02-15T16:51:50;9.60;97.60
9537;DHT22;4807;48.024;11.726;2024-02-15T16:54:58;9.40;97.90
9537;DHT22;4807;48.024;11.726;2024-02-15T16:58:07;9.30;98.20
9537;DHT22;4807;48.024;11.726;2024-02-15T17:01:17;9.20;98.60
9537;DHT22;4807;48.024;11.726;2024-02-15T17:04:27;9.00;98.90
9537;DHT22;4807;48.024;11.726;2024-02-15T17:07:35;9.00;99.40
9537;DHT22;4807;48.024;11.726;2024-02-15T17:10:44;8.70;99.70
9537;DHT22;4807;48.024;11.726;2024-02-15T17:13:52;8.60;99.90
9537;DHT22;4807;48.024;11.726;2024-02-15T17:17:04;8.50;99.90
9537;DHT22;4807;48.024;11.726;2024-02-15T17:20:14;8.40;99.90
9537;DHT22;4807;48.024;11.726;2024-02-15T17:23:23;8.30;99.90
9537;DHT22;4807;48.024;11.726;2024-02-15T17:26:31;8.30;99.90
9537;DHT22;4807;48.024;11.726;2024-02-15T17:29:39;8.20;99.90
9537;DHT22;4807;48.024;11.726;2024-02-15T17:32:49;8.20;99.90
9537;DHT22;4807;48.024;11.726;2024-02-15T17:36:00;8.10;99.90
9537;DHT22;4807;48.024;11.726;2024-02-15T17:39:09;8.10;99.90
9537;DHT22;4807;48.024;11.726;2024-02-15T17:42:21;7.90;99.90
9537;DHT22;4807;48.024;11.726;2024-02-15T17:45:30;7.90;99.90
9537;DHT22;4807;48.024;11.726;2024-02-15T17:48:39;7.90;99.90
9537;DHT22;4807;48.024;11.726;2024-02-15T17:51:50;7.80;99.90
9537;DHT22;4807;48.024;11.726;2024-02-15T17:54:59;7.70;99.90
9537;DHT22;4807;48.024;11.726;2024-02-15T17:58:08;7.50;99.90
9537;DHT22;4807;48.024;11.726;2024-02-15T18:01:17;7.60;99.90
9537;DHT22;4807;48.024;11.726;2024-02-15T18:04:27;7.50;99.90
9537;DHT22;4807;48.024;11.726;2024-02-15T18:07:37;7.40;99.90
9537;DHT22;4807;48.024;11.726;2024-02-15T18:10:46;7.30;99.90
9537;DHT22;4807;48.024;11.726;2024-02-15T18:13:56;7.30;99.90
9537;DHT22;4807;48.024;11.726;2024-02-15T18:17:04;7.20;99.90
9537;DHT22;4807;48.024;11.726;2024-02-15T18:20:13;7.20;99.90
9537;DHT22;4807;48.024;11.726;2024-02-15T18:23:24;7.10;99.90
9537;DHT22;4807;48.024;11.726;2024-02-15T18:26:33;7.10;99.90
9537;DHT22;4807;48.024;11.726;2024-02-15T18:29:42;7.10;99.90
9537;DHT22;4807;48.024;11.726;2024-02-15T18:32:52;7.10;99.90
9537;DHT22;4807;48.024;11.726;2024-02-15T18:36:01;7.20;99.90
9537;DHT22;4807;48.024;11.726;2024-02-15T18:39:11;7.20;99.90
9537;DHT22;4807;48.024;11.726;2024-02-15T18:42:20;7.30;99.90
9537;DHT22;4807;48.024;11.726;2024-02-15T18:45:32;7.30;99.90
9537;DHT22;4807;48.024;11.726;2024-02-15T18:48:42;7.30;99.90
9537;DHT22;4807;48.024;11.726;2024-02-15T18:51:51;7.30;99.90
9537;DHT22;4807;48.024;11.726;2024-02-15T18:55:02;7.20;99.90
9537;DHT22;4807;48.024;11.726;2024-02-15T18:58:10;7.20;99.90
9537;DHT22;4807;48.024;11.726;2024-02-15T19:01:19;7.20;99.90
9537;DHT22;4807;48.024;11.726;2024-02-15T19:04:30;7.10;99.90
9537;DHT22;4807;48.024;11.726;2024-02-15T19:07:38;7.20;99.90
9537;DHT22;4807;48.024;11.726;2024-02-15T19:10:48;7.10;99.90
9537;DHT22;4807;48.024;11.726;2024-02-15T19:13:56;7.00;99.90
9537;DHT22;4807;48.024;11.726;2024-02-15T19:17:05;6.90;99.90
9537;DHT22;4807;48.024;11.726;2024-02-15T19:20:14;7.10;99.90
9537;DHT22;4807;48.024;11.726;2024-02-15T19:23:24;6.70;99.90
9537;DHT22;4807;48.024;11.726;2024-02-15T19:26:34;6.60;99.90
9537;DHT22;4807;48.024;11.726;2024-02-15T19:29:47;6.40;99.90
9537;DHT22;4807;48.024;11.726;2024-02-15T19:32:58;6.30;99.90
9537;DHT22;4807;48.024;11.726;2024-02-15T19:36:12;6.20;99.90
9537;DHT22;4807;48.024;11.726;2024-02-15T19:39:22;6.10;99.90
9537;DHT22;4807;48.024;11.726;2024-02-15T19:42:32;6.10;99.90
9537;DHT22;4807;48.024;11.726;2024-02-15T19:45:40;6.10;99.90
9537;DHT22;4807;48.024;11.726;2024-02-15T19:48:50;6.00;99.90
9537;DHT22;4807;48.024;11.726;2024-02-15T19:51:59;6.00;99.90
9537;DHT22;4807;48.024;11.726;2024-02-15T19:55:08;6.00;99.90
9537;DHT22;4807;48.024;11.726;2024-02-15T19:58:19;6.00;99.90
9537;DHT22;4807;48.024;11.726;2024-02-15T20:01:27;6.00;99.90
9537;DHT22;4807;48.024;11.726;2024-02-15T20:04:36;5.90;99.90
9537;DHT22;4807;48.024;11.726;2024-02-15T20:07:44;5.80;99.90
9537;DHT22;4807;48.024;11.726;2024-02-15T20:10:53;5.80;99.90
9537;DHT22;4807;48.024;11.726;2024-02-15T20:14:04;5.60;99.90
9537;DHT22;4807;48.024;11.726;2024-02-15T20:17:13;5.60;99.90
9537;DHT22;4807;48.024;11.726;2024-02-15T20:20:24;5.60;99.90
9537;DHT22;4807;48.024;11.726;2024-02-15T20:27:05;5.80;99.90
9537;DHT22;4807;48.024;11.726;2024-02-15T20:30:17;5.60;99.90
9537;DHT22;4807;48.024;11.726;2024-02-15T20:33:29;5.50;99.90
9537;DHT22;4807;48.024;11.726;2024-02-15T20:36:40;5.40;99.90
9537;DHT22;4807;48.024;11.726;2024-02-15T20:39:48;5.20;99.90